sensor_id;sensor_type;location;lat;lon;timestamp;pressure;altitude;pressure_sealevel;temperature;humidity
70684;BME280;58263;48.146;11.440;2022-10-18T00:02:01;96639.41;;;12.81;74.67
70684;BME280;58263;48.146;11.440;2022-10-18T00:04:26;96629.09;;;12.78;74.59
70684;BME280;58263;48.146;11.440;2022-10-18T00:06:52;96633.28;;;12.74;74.98
70684;BME280;58263;48.146;11.440;2022-10-18T00:09:17;96625.19;;;12.74;74.70
70684;BME280;58263;48.146;11.440;2022-10-18T00:11:42;96622.72;;;12.73;74.35
70684;BME280;58263;48.146;11.440;2022-10-18T00:14:08;96630.94;;;12.59;74.80
70684;BME280;58263;48.146;11.440;2022-10-18T00:16:33;96620.78;;;12.61;74.56
70684;BME280;58263;48.146;11.440;2022-10-18T00:18:58;96623.53;;;12.55;74.99
70684;BME280;58263;48.146;11.440;2022-10-18T00:21:24;96622.03;;;12.59;74.34
70684;BME280;58263;48.146;11.440;2022-10-18T00:23:51;96635.00;;;12.43;75.08
70684;BME280;58263;48.146;11.440;2022-10-18T00:26:19;96625.88;;;12.44;74.50
70684;BME280;58263;48.146;11.440;2022-10-18T00:28:46;96634.19;;;12.43;74.38
70684;BME280;58263;48.146;11.440;2022-10-18T00:31:43;96633.03;;;12.32;74.93
70684;BME280;58263;48.146;11.440;2022-10-18T00:34:13;96633.06;;;12.25;75.02
70684;BME280;58263;48.146;11.440;2022-10-18T00:36:39;96642.06;;;12.38;74.69
70684;BME280;58263;48.146;11.440;2022-10-18T00:39:07;96640.88;;;12.33;74.34
70684;BME280;58263;48.146;11.440;2022-10-18T00:41:33;96641.75;;;12.27;74.61
70684;BME280;58263;48.146;11.440;2022-10-18T00:44:00;96637.25;;;12.21;74.96
70684;BME280;58263;48.146;11.440;2022-10-18T00:46:33;96635.03;;;12.11;75.26
70684;BME280;58263;48.146;11.440;2022-10-18T00:49:05;96635.22;;;12.16;74.59
70684;BME280;58263;48.146;11.440;2022-10-18T00:51:41;96627.41;;;12.08;75.09
70684;BME280;58263;48.146;11.440;2022-10-18T00:54:08;96617.88;;;12.12;74.87
70684;BME280;58263;48.146;11.440;2022-10-18T00:56:33;96612.50;;;12.12;74.70
70684;BME280;58263;48.146;11.440;2022-10-18T00:58:59;96619.34;;;12.08;74.97
70684;BME280;58263;48.146;11.440;2022-10-18T05:29:36;96618.31;;;11.32;77.90
70684;BME280;58263;48.146;11.440;2022-10-18T05:32:01;96618.69;;;11.36;78.09
70684;BME280;58263;48.146;11.440;2022-10-18T05:34:27;96624.47;;;11.39;78.13
70684;BME280;58263;48.146;11.440;2022-10-18T05:36:56;96627.78;;;11.41;78.51
70684;BME280;58263;48.146;11.440;2022-10-18T05:39:21;96625.06;;;11.48;78.42
70684;BME280;58263;48.146;11.440;2022-10-18T05:41:46;96635.34;;;11.58;78.55
70684;BME280;58263;48.146;11.440;2022-10-18T05:44:12;96629.53;;;11.61;78.79
70684;BME280;58263;48.146;11.440;2022-10-18T05:46:37;96636.78;;;11.60;79.12
70684;BME280;58263;48.146;11.440;2022-10-18T05:49:02;96649.34;;;11.66;79.06
70684;BME280;58263;48.146;11.440;2022-10-18T05:51:27;96648.72;;;11.71;79.11
70684;BME280;58263;48.146;11.440;2022-10-18T05:53:53;96650.75;;;11.76;78.82
70684;BME280;58263;48.146;11.440;2022-10-18T05:56:18;96647.81;;;11.84;78.50
70684;BME280;58263;48.146;11.440;2022-10-18T05:58:49;96646.97;;;11.90;79.07
70684;BME280;58263;48.146;11.440;2022-10-18T06:01:14;96649.00;;;11.95;78.75
70684;BME280;58263;48.146;11.440;2022-10-18T06:03:40;96643.63;;;11.95;79.13
70684;BME280;58263;48.146;11.440;2022-10-18T06:06:08;96645.44;;;12.01;78.96
70684;BME280;58263;48.146;11.440;2022-10-18T06:08:34;96640.69;;;12.03;79.63
70684;BME280;58263;48.146;11.440;2022-10-18T06:11:09;96645.34;;;12.14;78.93
70684;BME280;58263;48.146;11.440;2022-10-18T06:13:42;96646.34;;;12.20;78.79
70684;BME280;58263;48.146;11.440;2022-10-18T06:16:08;96646.75;;;12.24;79.06
70684;BME280;58263;48.146;11.440;2022-10-18T06:18:34;96645.03;;;12.29;78.81
70684;BME280;58263;48.146;11.440;2022-10-18T06:20:59;96638.00;;;12.28;79.54
70684;BME280;58263;48.146;11.440;2022-10-18T06:23:28;96633.25;;;12.30;79.43
70684;BME280;58263;48.146;11.440;2022-10-18T06:26:00;96636.34;;;12.34;79.55
70684;BME280;58263;48.146;11.440;2022-10-18T06:28:27;96627.38;;;12.40;79.63
70684;BME280;58263;48.146;11.440;2022-10-18T06:30:52;96632.56;;;12.35;79.97
70684;BME280;58263;48.146;11.440;2022-10-18T06:33:18;96641.84;;;12.39;80.31
70684;BME280;58263;48.146;11.440;2022-10-18T06:35:53;96652.97;;;12.49;80.00
70684;BME280;58263;48.146;11.440;2022-10-18T06:38:18;96651.59;;;12.40;80.25
70684;BME280;58263;48.146;11.440;2022-10-18T06:40:46;96654.28;;;12.40;80.65
70684;BME280;58263;48.146;11.440;2022-10-18T06:43:11;96660.41;;;12.47;80.68
70684;BME280;58263;48.146;11.440;2022-10-18T06:45:37;96667.63;;;12.54;80.31
70684;BME280;58263;48.146;11.440;2022-10-18T06:48:02;96669.59;;;12.65;79.63
70684;BME280;58263;48.146;11.440;2022-10-18T06:50:27;96666.38;;;12.75;79.85
70684;BME280;58263;48.146;11.440;2022-10-18T06:52:53;96675.09;;;12.77;79.92
70684;BME280;58263;48.146;11.440;2022-10-18T06:55:18;96666.94;;;12.83;79.20
70684;BME280;58263;48.146;11.440;2022-10-18T06:57:43;96664.41;;;12.89;78.78
70684;BME280;58263;48.146;11.440;2022-10-18T07:00:09;96675.50;;;12.99;78.13
70684;BME280;58263;48.146;11.440;2022-10-18T07:02:35;96669.97;;;13.12;78.21
70684;BME280;58263;48.146;11.440;2022-10-18T07:05:01;96681.06;;;13.23;78.20
70684;BME280;58263;48.146;11.440;2022-10-18T07:07:29;96674.03;;;13.22;77.74
70684;BME280;58263;48.146;11.440;2022-10-18T07:09:55;96679.09;;;13.30;77.42
70684;BME280;58263;48.146;11.440;2022-10-18T07:12:20;96675.53;;;13.36;77.51
70684;BME280;58263;48.146;11.440;2022-10-18T07:14:45;96675.09;;;13.39;77.42
70684;BME280;58263;48.146;11.440;2022-10-18T07:17:11;96670.91;;;13.43;76.97
70684;BME280;58263;48.146;11.440;2022-10-18T07:19:36;96676.56;;;13.53;76.46
70684;BME280;58263;48.146;11.440;2022-10-18T07:22:01;96670.75;;;13.57;76.16
70684;BME280;58263;48.146;11.440;2022-10-18T07:24:27;96658.59;;;13.66;75.99
70684;BME280;58263;48.146;11.440;2022-10-18T07:26:52;96671.47;;;13.64;76.43
70684;BME280;58263;48.146;11.440;2022-10-18T07:29:17;96670.56;;;13.70;76.37
70684;BME280;58263;48.146;11.440;2022-10-18T07:31:43;96676.25;;;13.80;76.38
70684;BME280;58263;48.146;11.440;2022-10-18T07:34:10;96681.56;;;13.87;76.63
70684;BME280;58263;48.146;11.440;2022-10-18T07:36:36;96673.84;;;13.91;76.02
70684;BME280;58263;48.146;11.440;2022-10-18T07:39:02;96678.91;;;13.99;75.83
70684;BME280;58263;48.146;11.440;2022-10-18T07:41:28;96674.25;;;14.06;75.45
70684;BME280;58263;48.146;11.440;2022-10-18T07:43:54;96671.69;;;14.11;75.61
70684;BME280;58263;48.146;11.440;2022-10-18T07:46:20;96665.50;;;14.23;75.74
70684;BME280;58263;48.146;11.440;2022-10-18T07:48:46;96667.25;;;14.29;75.04
70684;BME280;58263;48.146;11.440;2022-10-18T07:51:11;96666.34;;;14.35;74.69
70684;BME280;58263;48.146;11.440;2022-10-18T07:53:37;96678.31;;;14.39;73.92
70684;BME280;58263;48.146;11.440;2022-10-18T07:56:05;96682.69;;;14.52;73.70
70684;BME280;58263;48.146;11.440;2022-10-18T07:58:31;96684.22;;;14.60;73.40
70684;BME280;58263;48.146;11.440;2022-10-18T08:01:00;96683.03;;;14.56;72.96
70684;BME280;58263;48.146;11.440;2022-10-18T08:03:26;96684.09;;;14.54;72.96
70684;BME280;58263;48.146;11.440;2022-10-18T08:05:53;96692.00;;;14.68;73.21
70684;BME280;58263;48.146;11.440;2022-10-18T08:08:19;96687.44;;;14.80;72.83
70684;BME280;58263;48.146;11.440;2022-10-18T08:10:45;96680.03;;;15.11;72.17
70684;BME280;58263;48.146;11.440;2022-10-18T08:13:10;96673.53;;;15.36;71.19
70684;BME280;58263;48.146;11.440;2022-10-18T08:15:35;96676.44;;;15.58;70.60
70684;BME280;58263;48.146;11.440;2022-10-18T08:18:00;96682.97;;;15.74;69.73
70684;BME280;58263;48.146;11.440;2022-10-18T08:20:26;96685.19;;;15.89;69.40
70684;BME280;58263;48.146;11.440;2022-10-18T08:22:51;96694.84;;;16.14;68.75
70684;BME280;58263;48.146;11.440;2022-10-18T08:25:17;96688.50;;;16.37;69.06
70684;BME280;58263;48.146;11.440;2022-10-18T08:27:42;96679.09;;;16.56;67.34
70684;BME280;58263;48.146;11.440;2022-10-18T08:30:08;96686.31;;;16.85;66.90
70684;BME280;58263;48.146;11.440;2022-10-18T08:32:34;96689.59;;;17.04;65.80
70684;BME280;58263;48.146;11.440;2022-10-18T08:35:00;96674.47;;;17.25;64.43
70684;BME280;58263;48.146;11.440;2022-10-18T08:37:25;96675.38;;;17.53;63.54
70684;BME280;58263;48.146;11.440;2022-10-18T08:39:51;96670.59;;;17.60;63.20
70684;BME280;58263;48.146;11.440;2022-10-18T08:44:48;96674.69;;;18.07;62.05
70684;BME280;58263;48.146;11.440;2022-10-18T08:47:20;96675.81;;;18.38;63.48
70684;BME280;58263;48.146;11.440;2022-10-18T08:49:59;96670.84;;;18.63;61.82
70684;BME280;58263;48.146;11.440;2022-10-18T08:52:44;96659.19;;;19.00;59.90
70684;BME280;58263;48.146;11.440;2022-10-18T08:57:46;96666.25;;;19.43;58.72
70684;BME280;58263;48.146;11.440;2022-10-18T09:00:27;96668.66;;;19.40;57.96
70684;BME280;58263;48.146;11.440;2022-10-18T09:03:06;96664.44;;;19.65;59.38
70684;BME280;58263;48.146;11.440;2022-10-18T09:05:53;96663.41;;;19.76;58.67
70684;BME280;58263;48.146;11.440;2022-10-18T09:11:15;96668.44;;;20.20;56.81
70684;BME280;58263;48.146;11.440;2022-10-18T09:14:00;96665.78;;;20.51;56.91
70684;BME280;58263;48.146;11.440;2022-10-18T09:16:37;96668.25;;;20.63;55.65
70684;BME280;58263;48.146;11.440;2022-10-18T09:19:34;96675.09;;;20.91;55.25
70684;BME280;58263;48.146;11.440;2022-10-18T09:22:11;96677.22;;;21.10;55.39
70684;BME280;58263;48.146;11.440;2022-10-18T09:24:39;96669.00;;;21.25;54.59
70684;BME280;58263;48.146;11.440;2022-10-18T09:27:16;96670.59;;;21.52;53.34
70684;BME280;58263;48.146;11.440;2022-10-18T09:35:23;96665.84;;;21.89;53.17
70684;BME280;58263;48.146;11.440;2022-10-18T09:38:08;96669.94;;;21.86;53.88
70684;BME280;58263;48.146;11.440;2022-10-18T09:40:37;96665.06;;;21.78;53.45
70684;BME280;58263;48.146;11.440;2022-10-18T09:43:21;96671.06;;;21.80;54.29
70684;BME280;58263;48.146;11.440;2022-10-18T09:45:48;96672.69;;;21.76;54.95
70684;BME280;58263;48.146;11.440;2022-10-18T09:48:22;96671.66;;;21.67;53.80
70684;BME280;58263;48.146;11.440;2022-10-18T09:51:08;96665.13;;;21.63;52.80
70684;BME280;58263;48.146;11.440;2022-10-18T09:53:42;96671.66;;;21.51;52.71
70684;BME280;58263;48.146;11.440;2022-10-18T09:56:18;96660.16;;;21.75;53.27
70684;BME280;58263;48.146;11.440;2022-10-18T09:58:48;96664.47;;;21.91;52.53
70684;BME280;58263;48.146;11.440;2022-10-18T10:01:19;96666.13;;;21.87;52.73
70684;BME280;58263;48.146;11.440;2022-10-18T10:03:45;96665.50;;;22.01;51.90
70684;BME280;58263;48.146;11.440;2022-10-18T10:08:36;96664.59;;;22.16;53.24
70684;BME280;58263;48.146;11.440;2022-10-18T10:11:07;96668.16;;;22.11;52.35
70684;BME280;58263;48.146;11.440;2022-10-18T10:13:49;96653.44;;;23.45;48.94
70684;BME280;58263;48.146;11.440;2022-10-18T10:16:15;96648.16;;;24.92;45.32
70684;BME280;58263;48.146;11.440;2022-10-18T10:18:40;96652.16;;;26.62;41.85
70684;BME280;58263;48.146;11.440;2022-10-18T10:21:07;96644.56;;;27.93;39.22
70684;BME280;58263;48.146;11.440;2022-10-18T10:23:43;96634.44;;;28.73;36.89
70684;BME280;58263;48.146;11.440;2022-10-18T10:26:22;96638.84;;;29.86;34.80
70684;BME280;58263;48.146;11.440;2022-10-18T10:28:47;96634.53;;;30.70;33.39
70684;BME280;58263;48.146;11.440;2022-10-18T10:31:32;96641.63;;;30.92;31.50
70684;BME280;58263;48.146;11.440;2022-10-18T10:33:59;96634.19;;;31.88;30.94
70684;BME280;58263;48.146;11.440;2022-10-18T10:36:25;96640.03;;;31.24;32.04
70684;BME280;58263;48.146;11.440;2022-10-18T10:39:10;96636.25;;;29.42;34.45
70684;BME280;58263;48.146;11.440;2022-10-18T10:41:36;96635.25;;;28.64;37.23
70684;BME280;58263;48.146;11.440;2022-10-18T10:44:04;96634.56;;;28.15;37.13
70684;BME280;58263;48.146;11.440;2022-10-18T10:46:37;96630.88;;;28.28;36.60
70684;BME280;58263;48.146;11.440;2022-10-18T10:49:03;96630.41;;;27.69;37.23
70684;BME280;58263;48.146;11.440;2022-10-18T10:51:38;96628.75;;;27.27;38.75
70684;BME280;58263;48.146;11.440;2022-10-18T10:54:18;96626.56;;;27.07;39.25
70684;BME280;58263;48.146;11.440;2022-10-18T10:56:57;96626.06;;;26.59;39.63
70684;BME280;58263;48.146;11.440;2022-10-18T10:59:24;96622.25;;;26.46;40.36
70684;BME280;58263;48.146;11.440;2022-10-18T11:02:19;96612.06;;;26.70;40.98
70684;BME280;58263;48.146;11.440;2022-10-18T11:04:47;96608.34;;;26.52;41.32
70684;BME280;58263;48.146;11.440;2022-10-18T11:12:46;96606.94;;;26.18;42.10
70684;BME280;58263;48.146;11.440;2022-10-18T11:15:31;96606.47;;;26.02;42.18
70684;BME280;58263;48.146;11.440;2022-10-18T11:20:50;96607.69;;;25.95;42.54
70684;BME280;58263;48.146;11.440;2022-10-18T11:23:17;96604.75;;;26.06;43.45
70684;BME280;58263;48.146;11.440;2022-10-18T11:36:40;96598.75;;;26.04;41.28
70684;BME280;58263;48.146;11.440;2022-10-18T11:39:24;96596.19;;;26.07;42.52
70684;BME280;58263;48.146;11.440;2022-10-18T11:44:36;96594.44;;;26.11;42.66
70684;BME280;58263;48.146;11.440;2022-10-18T11:49:51;96583.16;;;26.36;42.75
70684;BME280;58263;48.146;11.440;2022-10-18T11:55:09;96573.03;;;26.22;43.27
70684;BME280;58263;48.146;11.440;2022-10-18T12:03:22;96562.53;;;26.47;41.87
70684;BME280;58263;48.146;11.440;2022-10-18T12:05:53;96563.13;;;26.66;42.48
70684;BME280;58263;48.146;11.440;2022-10-18T12:08:27;96559.38;;;26.62;42.22
70684;BME280;58263;48.146;11.440;2022-10-18T12:10:59;96561.41;;;26.71;42.14
70684;BME280;58263;48.146;11.440;2022-10-18T12:13:50;96557.72;;;26.75;42.56
70684;BME280;58263;48.146;11.440;2022-10-18T12:16:19;96548.56;;;26.66;41.88
70684;BME280;58263;48.146;11.440;2022-10-18T12:18:53;96544.50;;;26.41;40.00
70684;BME280;58263;48.146;11.440;2022-10-18T12:21:21;96550.72;;;26.46;39.82
70684;BME280;58263;48.146;11.440;2022-10-18T12:26:18;96546.88;;;26.34;40.81
70684;BME280;58263;48.146;11.440;2022-10-18T12:29:13;96546.50;;;26.49;41.10
70684;BME280;58263;48.146;11.440;2022-10-18T12:31:47;96546.56;;;26.58;41.57
70684;BME280;58263;48.146;11.440;2022-10-18T12:34:34;96547.88;;;26.38;40.09
70684;BME280;58263;48.146;11.440;2022-10-18T12:39:41;96538.25;;;26.49;40.74
70684;BME280;58263;48.146;11.440;2022-10-18T12:42:19;96536.09;;;26.37;41.14
70684;BME280;58263;48.146;11.440;2022-10-18T12:44:46;96524.06;;;26.33;40.33
70684;BME280;58263;48.146;11.440;2022-10-18T12:47:23;96533.97;;;25.97;40.60
70684;BME280;58263;48.146;11.440;2022-10-18T12:49:57;96529.09;;;25.44;40.50
70684;BME280;58263;48.146;11.440;2022-10-18T12:52:25;96532.75;;;25.25;41.83
70684;BME280;58263;48.146;11.440;2022-10-18T13:08:38;96522.28;;;24.86;44.08
70684;BME280;58263;48.146;11.440;2022-10-18T13:16:23;96526.03;;;24.57;44.69
70684;BME280;58263;48.146;11.440;2022-10-18T13:18:55;96523.59;;;24.55;44.59
70684;BME280;58263;48.146;11.440;2022-10-18T13:21:54;96529.94;;;24.56;44.19
70684;BME280;58263;48.146;11.440;2022-10-18T13:32:25;96531.25;;;24.25;46.00
70684;BME280;58263;48.146;11.440;2022-10-18T13:34:53;96533.25;;;23.82;45.46
70684;BME280;58263;48.146;11.440;2022-10-18T13:37:24;96528.47;;;23.92;46.26
70684;BME280;58263;48.146;11.440;2022-10-18T13:40:13;96526.75;;;23.77;46.58
70684;BME280;58263;48.146;11.440;2022-10-18T13:42:39;96529.78;;;23.76;47.03
70684;BME280;58263;48.146;11.440;2022-10-18T13:47:55;96530.06;;;23.55;46.68
70684;BME280;58263;48.146;11.440;2022-10-18T13:50:32;96531.25;;;23.49;47.44
70684;BME280;58263;48.146;11.440;2022-10-18T13:53:06;96526.88;;;23.29;47.31
70684;BME280;58263;48.146;11.440;2022-10-18T13:56:01;96524.13;;;23.29;47.90
70684;BME280;58263;48.146;11.440;2022-10-18T13:58:44;96530.00;;;23.17;48.36
70684;BME280;58263;48.146;11.440;2022-10-18T14:01:22;96530.69;;;23.04;48.60
70684;BME280;58263;48.146;11.440;2022-10-18T14:06:34;96534.66;;;22.92;49.51
70684;BME280;58263;48.146;11.440;2022-10-18T14:11:47;96529.91;;;22.74;50.39
70684;BME280;58263;48.146;11.440;2022-10-18T14:14:39;96533.84;;;22.62;50.19
70684;BME280;58263;48.146;11.440;2022-10-18T14:25:35;96525.91;;;22.32;51.38
70684;BME280;58263;48.146;11.440;2022-10-18T14:28:16;96525.09;;;22.31;53.12
70684;BME280;58263;48.146;11.440;2022-10-18T14:31:00;96529.50;;;22.27;52.73
70684;BME280;58263;48.146;11.440;2022-10-18T14:33:35;96525.69;;;22.28;51.88
70684;BME280;58263;48.146;11.440;2022-10-18T14:36:21;96525.56;;;22.43;52.13
70684;BME280;58263;48.146;11.440;2022-10-18T14:39:01;96524.22;;;22.41;53.00
70684;BME280;58263;48.146;11.440;2022-10-18T14:41:29;96531.97;;;22.23;52.23
70684;BME280;58263;48.146;11.440;2022-10-18T14:46:43;96536.97;;;22.16;52.64
70684;BME280;58263;48.146;11.440;2022-10-18T14:49:11;96530.47;;;22.07;52.62
70684;BME280;58263;48.146;11.440;2022-10-18T14:51:38;96528.84;;;22.06;52.45
70684;BME280;58263;48.146;11.440;2022-10-18T14:54:05;96533.56;;;21.95;52.88
70684;BME280;58263;48.146;11.440;2022-10-18T14:56:37;96535.50;;;21.89;53.18
70684;BME280;58263;48.146;11.440;2022-10-18T14:59:10;96542.13;;;21.83;53.72
70684;BME280;58263;48.146;11.440;2022-10-18T15:01:37;96538.88;;;21.76;53.49
70684;BME280;58263;48.146;11.440;2022-10-18T15:04:09;96536.81;;;21.63;53.54
70684;BME280;58263;48.146;11.440;2022-10-18T15:06:35;96536.81;;;21.57;53.63
70684;BME280;58263;48.146;11.440;2022-10-18T15:09:02;96548.88;;;21.46;53.17
70684;BME280;58263;48.146;11.440;2022-10-18T15:11:31;96550.78;;;21.40;52.98
70684;BME280;58263;48.146;11.440;2022-10-18T15:13:59;96546.25;;;21.20;53.63
70684;BME280;58263;48.146;11.440;2022-10-18T15:16:28;96545.66;;;21.34;54.22
70684;BME280;58263;48.146;11.440;2022-10-18T15:19:34;96544.56;;;21.30;54.24
70684;BME280;58263;48.146;11.440;2022-10-18T15:22:06;96548.41;;;21.28;54.57
70684;BME280;58263;48.146;11.440;2022-10-18T15:24:36;96544.59;;;21.24;54.88
70684;BME280;58263;48.146;11.440;2022-10-18T15:27:19;96539.69;;;21.21;54.76
70684;BME280;58263;48.146;11.440;2022-10-18T15:29:47;96546.28;;;21.10;54.79
70684;BME280;58263;48.146;11.440;2022-10-18T15:32:23;96542.44;;;21.16;54.39
70684;BME280;58263;48.146;11.440;2022-10-18T15:34:50;96543.03;;;21.08;54.18
70684;BME280;58263;48.146;11.440;2022-10-18T15:37:39;96543.59;;;20.94;55.27
70684;BME280;58263;48.146;11.440;2022-10-18T15:40:35;96541.69;;;20.90;55.27
70684;BME280;58263;48.146;11.440;2022-10-18T15:45:46;96549.06;;;20.84;55.56
70684;BME280;58263;48.146;11.440;2022-10-18T15:48:19;96545.28;;;20.75;56.74
70684;BME280;58263;48.146;11.440;2022-10-18T15:51:02;96553.72;;;20.73;57.59
70684;BME280;58263;48.146;11.440;2022-10-18T15:53:42;96550.72;;;20.65;57.08
70684;BME280;58263;48.146;11.440;2022-10-18T15:58:53;96554.28;;;20.55;57.14
70684;BME280;58263;48.146;11.440;2022-10-18T16:01:41;96559.19;;;20.58;57.89
70684;BME280;58263;48.146;11.440;2022-10-18T16:04:14;96560.84;;;20.54;57.29
70684;BME280;58263;48.146;11.440;2022-10-18T16:06:42;96556.47;;;20.48;58.81
70684;BME280;58263;48.146;11.440;2022-10-18T16:09:11;96559.22;;;20.42;59.22
70684;BME280;58263;48.146;11.440;2022-10-18T16:11:39;96564.94;;;20.36;60.11
70684;BME280;58263;48.146;11.440;2022-10-18T16:14:04;96557.31;;;20.27;60.69
70684;BME280;58263;48.146;11.440;2022-10-18T16:16:30;96568.19;;;20.22;60.92
70684;BME280;58263;48.146;11.440;2022-10-18T16:18:56;96574.19;;;20.19;61.55
70684;BME280;58263;48.146;11.440;2022-10-18T16:21:32;96582.91;;;20.16;61.94
70684;BME280;58263;48.146;11.440;2022-10-18T16:23:58;96581.81;;;20.12;63.61
70684;BME280;58263;48.146;11.440;2022-10-18T16:26:25;96581.78;;;19.91;65.06
70684;BME280;58263;48.146;11.440;2022-10-18T16:28:52;96579.59;;;19.83;65.46
70684;BME280;58263;48.146;11.440;2022-10-18T16:31:21;96584.50;;;19.81;66.19
70684;BME280;58263;48.146;11.440;2022-10-18T16:33:47;96583.34;;;19.72;67.63
70684;BME280;58263;48.146;11.440;2022-10-18T16:36:18;96590.94;;;19.70;67.78
70684;BME280;58263;48.146;11.440;2022-10-18T16:38:45;96599.13;;;19.65;67.44
70684;BME280;58263;48.146;11.440;2022-10-18T16:41:11;96601.81;;;19.54;69.09
70684;BME280;58263;48.146;11.440;2022-10-18T16:43:37;96606.13;;;19.45;69.67
70684;BME280;58263;48.146;11.440;2022-10-18T16:46:05;96601.16;;;19.32;69.82
70684;BME280;58263;48.146;11.440;2022-10-18T16:48:31;96597.34;;;19.33;70.21
70684;BME280;58263;48.146;11.440;2022-10-18T16:50:57;96595.16;;;19.24;70.89
70684;BME280;58263;48.146;11.440;2022-10-18T16:53:22;96591.81;;;19.12;71.95
70684;BME280;58263;48.146;11.440;2022-10-18T16:55:59;96600.25;;;19.11;72.40
70684;BME280;58263;48.146;11.440;2022-10-18T16:58:26;96604.84;;;19.10;71.98
70684;BME280;58263;48.146;11.440;2022-10-18T17:00:52;96598.84;;;19.03;72.08
70684;BME280;58263;48.146;11.440;2022-10-18T17:03:18;96612.13;;;18.94;73.30
70684;BME280;58263;48.146;11.440;2022-10-18T17:05:43;96606.38;;;18.90;73.43
70684;BME280;58263;48.146;11.440;2022-10-18T17:08:20;96617.44;;;18.84;73.45
70684;BME280;58263;48.146;11.440;2022-10-18T17:10:47;96615.00;;;18.82;73.43
70684;BME280;58263;48.146;11.440;2022-10-18T17:13:13;96618.22;;;18.74;74.08
70684;BME280;58263;48.146;11.440;2022-10-18T17:15:39;96617.09;;;18.70;74.00
70684;BME280;58263;48.146;11.440;2022-10-18T17:18:10;96617.63;;;18.67;73.65
70684;BME280;58263;48.146;11.440;2022-10-18T17:20:36;96627.38;;;18.63;73.67
70684;BME280;58263;48.146;11.440;2022-10-18T17:23:01;96615.88;;;18.55;73.83
70684;BME280;58263;48.146;11.440;2022-10-18T17:25:27;96617.47;;;18.51;74.32
70684;BME280;58263;48.146;11.440;2022-10-18T17:27:52;96621.81;;;18.47;74.10
70684;BME280;58263;48.146;11.440;2022-10-18T17:30:17;96616.84;;;18.39;74.46
70684;BME280;58263;48.146;11.440;2022-10-18T17:32:43;96621.41;;;18.33;74.40
70684;BME280;58263;48.146;11.440;2022-10-18T17:35:09;96626.00;;;18.28;74.53
70684;BME280;58263;48.146;11.440;2022-10-18T17:37:35;96634.09;;;18.22;74.88
70684;BME280;58263;48.146;11.440;2022-10-18T17:40:02;96644.88;;;18.12;73.75
70684;BME280;58263;48.146;11.440;2022-10-18T17:42:28;96648.66;;;18.11;74.53
70684;BME280;58263;48.146;11.440;2022-10-18T17:44:53;96646.06;;;17.99;75.12
70684;BME280;58263;48.146;11.440;2022-10-18T17:47:18;96646.91;;;18.00;75.14
70684;BME280;58263;48.146;11.440;2022-10-18T17:49:43;96653.63;;;17.92;75.42
70684;BME280;58263;48.146;11.440;2022-10-18T17:52:10;96652.19;;;17.89;75.01
70684;BME280;58263;48.146;11.440;2022-10-18T17:54:36;96657.63;;;17.89;75.13
70684;BME280;58263;48.146;11.440;2022-10-18T17:57:01;96659.47;;;17.84;75.38
70684;BME280;58263;48.146;11.440;2022-10-18T17:59:26;96660.53;;;17.83;75.32
70684;BME280;58263;48.146;11.440;2022-10-18T18:01:53;96666.72;;;17.78;75.51
70684;BME280;58263;48.146;11.440;2022-10-18T18:04:18;96666.09;;;17.71;76.29
70684;BME280;58263;48.146;11.440;2022-10-18T18:06:43;96656.06;;;17.71;75.44
70684;BME280;58263;48.146;11.440;2022-10-18T18:09:11;96662.81;;;17.69;74.94
70684;BME280;58263;48.146;11.440;2022-10-18T18:11:38;96669.56;;;17.66;75.68
70684;BME280;58263;48.146;11.440;2022-10-18T18:14:06;96663.81;;;17.63;75.07
70684;BME280;58263;48.146;11.440;2022-10-18T18:16:34;96665.97;;;17.61;75.49
70684;BME280;58263;48.146;11.440;2022-10-18T18:19:00;96663.25;;;17.61;75.48
70684;BME280;58263;48.146;11.440;2022-10-18T18:21:25;96672.47;;;17.60;75.30
70684;BME280;58263;48.146;11.440;2022-10-18T18:23:51;96666.16;;;17.54;75.61
70684;BME280;58263;48.146;11.440;2022-10-18T18:26:17;96671.84;;;17.52;75.38
70684;BME280;58263;48.146;11.440;2022-10-18T18:28:43;96668.00;;;17.48;76.03
70684;BME280;58263;48.146;11.440;2022-10-18T18:31:13;96667.13;;;17.43;76.56
70684;BME280;58263;48.146;11.440;2022-10-18T18:33:39;96667.66;;;17.45;76.33
70684;BME280;58263;48.146;11.440;2022-10-18T18:36:05;96670.63;;;17.43;76.28
70684;BME280;58263;48.146;11.440;2022-10-18T18:38:32;96671.44;;;17.44;75.92
70684;BME280;58263;48.146;11.440;2022-10-18T18:41:06;96670.09;;;17.41;76.02
70684;BME280;58263;48.146;11.440;2022-10-18T18:43:32;96666.78;;;17.39;76.75
70684;BME280;58263;48.146;11.440;2022-10-18T18:45:58;96666.22;;;17.37;76.00
70684;BME280;58263;48.146;11.440;2022-10-18T18:48:25;96670.00;;;17.36;76.52
70684;BME280;58263;48.146;11.440;2022-10-18T18:50:50;96667.78;;;17.33;77.53
70684;BME280;58263;48.146;11.440;2022-10-18T18:53:17;96673.78;;;17.35;76.33
70684;BME280;58263;48.146;11.440;2022-10-18T18:55:42;96674.84;;;17.34;76.17
70684;BME280;58263;48.146;11.440;2022-10-18T18:58:08;96678.06;;;17.31;76.58
70684;BME280;58263;48.146;11.440;2022-10-18T19:00:37;96676.41;;;17.30;75.98
70684;BME280;58263;48.146;11.440;2022-10-18T19:03:03;96672.31;;;17.27;76.29
70684;BME280;58263;48.146;11.440;2022-10-18T19:05:28;96673.63;;;17.24;76.37
70684;BME280;58263;48.146;11.440;2022-10-18T19:07:53;96673.59;;;17.19;76.48
70684;BME280;58263;48.146;11.440;2022-10-18T19:10:19;96673.50;;;17.14;76.41
70684;BME280;58263;48.146;11.440;2022-10-18T19:12:44;96673.50;;;17.14;76.55
70684;BME280;58263;48.146;11.440;2022-10-18T19:15:09;96674.22;;;17.10;76.31
70684;BME280;58263;48.146;11.440;2022-10-18T19:17:36;96674.47;;;17.08;76.45
70684;BME280;58263;48.146;11.440;2022-10-18T19:20:01;96663.81;;;17.01;76.99